Time;durP1;ratioP1;P1;durP2;ratioP2;P2;SDS_P1;SDS_P2;PMS_P1;PMS_P2;Temp;Humidity;BMP_temperature;BMP_pressure;BME280_temperature;BME280_humidity;BME280_pressure;Samples;Min_cycle;Max_cycle;Signal;HPM_P1;HPM_P2
2024/01/14 00:01:58;;;;;;;1.38;1.27;;;;;;;5.46;100.00;99940.00;5013962;28;20033;-75
2024/01/14 00:04:24;;;;;;;0.20;0.20;;;;;;;5.43;100.00;99945.22;5019970;28;20036;-74
2024/01/14 00:06:50;;;;;;;0.28;0.28;;;;;;;5.30;100.00;99951.72;5005339;28;20053;-75
2024/01/14 00:09:17;;;;;;;0.43;0.32;;;;;;;5.53;100.00;99952.00;5003192;28;20029;-75
2024/01/14 00:11:42;;;;;;;0.45;0.45;;;;;;;5.46;100.00;99939.22;4999578;28;21323;-75
2024/01/14 00:14:08;;;;;;;0.60;0.60;;;;;;;5.43;100.00;99953.25;5005758;28;20059;-75
2024/01/14 00:16:36;;;;;;;0.30;0.30;;;;;;;5.64;100.00;99948.50;5013260;28;20464;-75
2024/01/14 00:19:05;;;;;;;2.33;0.73;;;;;;;5.52;100.00;99951.22;5007030;28;20037;-75
2024/01/14 00:21:33;;;;;;;0.30;0.30;;;;;;;5.36;100.00;99958.38;5005832;28;20133;-75
2024/01/14 00:23:59;;;;;;;0.20;0.20;;;;;;;5.46;100.00;99950.66;4988749;28;20091;-75
2024/01/14 00:26:27;;;;;;;0.60;0.60;;;;;;;5.66;100.00;99938.25;5004293;28;20603;-75
2024/01/14 00:28:54;;;;;;;1.17;0.45;;;;;;;5.75;100.00;99943.47;5029970;28;20203;-74
2024/01/14 00:31:20;;;;;;;0.45;0.45;;;;;;;5.59;100.00;99929.28;5016579;28;20033;-75
2024/01/14 00:33:45;;;;;;;0.20;0.20;;;;;;;5.79;100.00;99926.41;5014773;28;20409;-75
2024/01/14 00:36:11;;;;;;;0.32;0.32;;;;;;;5.87;100.00;99938.09;5008133;28;20051;-74
2024/01/14 00:38:37;;;;;;;0.95;0.65;;;;;;;5.95;100.00;99937.16;5004121;28;20045;-75
2024/01/14 00:41:03;;;;;;;0.63;0.60;;;;;;;5.67;100.00;99939.06;5005068;28;20033;-75
2024/01/14 00:43:29;;;;;;;0.30;0.30;;;;;;;5.78;100.00;99930.22;5004992;28;20048;-75
2024/01/14 00:45:54;;;;;;;0.40;0.40;;;;;;;5.88;100.00;99939.66;5016151;28;20044;-75
2024/01/14 00:48:20;;;;;;;2.20;0.40;;;;;;;5.83;100.00;99931.84;5014072;28;20516;-75
2024/01/14 00:50:45;;;;;;;1.20;0.60;;;;;;;5.63;100.00;99935.50;5010908;28;20442;-75
2024/01/14 00:53:11;;;;;;;0.25;0.25;;;;;;;5.69;100.00;99928.81;5025126;28;20502;-75
2024/01/14 00:55:37;;;;;;;1.30;0.30;;;;;;;5.85;100.00;99927.75;5018500;28;20442;-76
2024/01/14 00:58:02;;;;;;;0.20;0.20;;;;;;;5.65;100.00;99918.03;5014510;28;20119;-75
2024/01/14 01:00:28;;;;;;;0.20;0.20;;;;;;;5.57;100.00;99928.84;5015219;28;20045;-75
2024/01/14 01:02:53;;;;;;;0.20;0.20;;;;;;;5.66;100.00;99932.13;5010367;28;20044;-74
2024/01/14 01:05:19;;;;;;;0.43;0.43;;;;;;;5.65;100.00;99926.03;5025332;28;20029;-75
2024/01/14 01:07:45;;;;;;;0.30;0.30;;;;;;;5.76;100.00;99915.63;5022023;28;20075;-75
2024/01/14 01:10:12;;;;;;;0.20;0.20;;;;;;;5.73;100.00;99917.09;5023619;28;20486;-75
2024/01/14 01:12:38;;;;;;;2.85;0.82;;;;;;;5.85;100.00;99918.97;5025260;28;20597;-75
2024/01/14 01:15:07;;;;;;;0.20;0.20;;;;;;;5.90;100.00;99902.69;5025866;28;20037;-75
2024/01/14 01:17:34;;;;;;;0.40;0.40;;;;;;;5.91;100.00;99904.25;5014409;28;20120;-75
2024/01/14 01:20:00;;;;;;;0.65;0.57;;;;;;;5.94;100.00;99908.91;5015720;28;20029;-75
2024/01/14 01:22:26;;;;;;;0.30;0.30;;;;;;;5.90;100.00;99900.03;5011335;28;20037;-75
2024/01/14 01:24:51;;;;;;;0.75;0.75;;;;;;;5.73;100.00;99900.31;5009740;28;20051;-75
2024/01/14 01:27:17;;;;;;;0.57;0.50;;;;;;;5.83;100.00;99886.44;5007996;28;20473;-75
2024/01/14 01:29:43;;;;;;;0.25;0.25;;;;;;;5.75;100.00;99898.06;4997265;28;20056;-75
2024/01/14 01:32:09;;;;;;;2.42;1.23;;;;;;;5.77;100.00;99903.84;5025092;28;20514;-75
2024/01/14 01:34:38;;;;;;;2.72;0.85;;;;;;;5.65;100.00;99903.91;5019995;28;20021;-75
2024/01/14 01:37:04;;;;;;;2.08;0.35;;;;;;;5.69;100.00;99902.09;5017604;28;20490;-75
2024/01/14 01:39:30;;;;;;;0.20;0.20;;;;;;;5.70;100.00;99906.31;5013232;28;20037;-75
2024/01/14 01:41:56;;;;;;;0.93;0.45;;;;;;;5.72;100.00;99901.41;5014482;28;20032;-75
2024/01/14 01:44:22;;;;;;;1.23;0.55;;;;;;;5.87;100.00;99906.03;5020347;28;20037;-75
2024/01/14 01:46:49;;;;;;;0.30;0.30;;;;;;;5.82;100.00;99893.69;5021099;28;20490;-75
2024/01/14 01:49:14;;;;;;;0.55;0.47;;;;;;;5.84;100.00;99888.81;5029019;28;20040;-75
2024/01/14 01:51:44;;;;;;;0.30;0.30;;;;;;;5.86;100.00;99877.78;5024314;28;20418;-75
2024/01/14 01:54:10;;;;;;;0.30;0.30;;;;;;;5.94;100.00;99874.19;5017146;28;20041;-74
2024/01/14 01:56:37;;;;;;;0.60;0.60;;;;;;;5.82;100.00;99884.91;5015787;28;20040;-74
2024/01/14 01:59:04;;;;;;;1.55;0.50;;;;;;;6.00;100.00;99894.19;5013258;28;20033;-75
2024/01/14 02:01:32;;;;;;;0.20;0.20;;;;;;;5.70;100.00;99883.06;4996692;28;20505;-75
2024/01/14 02:04:00;;;;;;;0.20;0.20;;;;;;;5.72;100.00;99883.50;5020932;28;20037;-75
2024/01/14 02:06:27;;;;;;;0.20;0.20;;;;;;;5.56;100.00;99876.53;5021011;28;20029;-75
2024/01/14 02:08:54;;;;;;;0.60;0.60;;;;;;;5.71;100.00;99886.50;5026427;28;20048;-75
2024/01/14 02:11:20;;;;;;;0.20;0.20;;;;;;;5.76;100.00;99881.69;5021237;28;20045;-75
2024/01/14 02:13:46;;;;;;;0.40;0.40;;;;;;;5.78;99.99;99886.69;5021005;28;20069;-75
2024/01/14 02:16:12;;;;;;;1.10;0.63;;;;;;;5.61;98.98;99887.00;5020833;28;20037;-75
2024/01/14 02:18:37;;;;;;;8.35;0.82;;;;;;;5.55;100.00;99875.00;5011849;28;20126;-74
2024/01/14 02:21:03;;;;;;;2.13;0.45;;;;;;;5.57;99.60;99876.22;5017684;28;20025;-75
2024/01/14 02:23:32;;;;;;;0.85;0.35;;;;;;;5.35;98.85;99869.53;5010564;28;20044;-75
2024/01/14 02:25:58;;;;;;;0.30;0.30;;;;;;;5.55;98.88;99867.00;4999678;28;20037;-75
2024/01/14 02:28:24;;;;;;;0.20;0.20;;;;;;;5.25;98.92;99858.53;5017937;28;20140;-74
2024/01/14 02:30:50;;;;;;;0.20;0.20;;;;;;;5.16;98.92;99849.91;5025605;28;20047;-75
2024/01/14 02:33:16;;;;;;;3.10;0.60;;;;;;;5.21;97.67;99842.41;5022281;28;20029;-74
2024/01/14 02:35:43;;;;;;;0.20;0.20;;;;;;;4.98;98.13;99841.38;5021489;28;20041;-75
2024/01/14 02:38:08;;;;;;;0.20;0.20;;;;;;;4.84;98.79;99832.94;5016326;28;20037;-74
2024/01/14 02:40:34;;;;;;;0.28;0.28;;;;;;;4.88;98.94;99836.50;5016736;28;20064;-74
2024/01/14 02:42:59;;;;;;;1.80;0.40;;;;;;;4.81;98.78;99848.84;5014425;28;20699;-75
2024/01/14 02:45:30;;;;;;;0.30;0.30;;;;;;;5.00;98.34;99841.03;5018435;28;20045;-75
2024/01/14 02:47:56;;;;;;;5.78;0.77;;;;;;;4.96;98.42;99848.94;5011572;28;20040;-74
2024/01/14 02:50:21;;;;;;;1.48;0.60;;;;;;;4.91;98.56;99843.84;5003456;28;20045;-75
2024/01/14 02:52:47;;;;;;;0.47;0.47;;;;;;;5.05;97.48;99843.50;5006756;28;20111;-75
2024/01/14 02:55:13;;;;;;;0.20;0.20;;;;;;;5.01;97.34;99845.28;4985924;28;20079;-75
2024/01/14 02:57:38;;;;;;;0.20;0.20;;;;;;;5.09;97.66;99845.13;5009157;28;20033;-75
2024/01/14 03:00:06;;;;;;;0.20;0.20;;;;;;;5.19;96.44;99844.66;4994430;28;20087;-75
2024/01/14 03:02:32;;;;;;;0.20;0.20;;;;;;;4.88;97.49;99839.16;5012140;28;20045;-74
2024/01/14 03:04:57;;;;;;;0.20;0.20;;;;;;;5.10;96.85;99841.34;5017939;28;20033;-75
2024/01/14 03:07:23;;;;;;;0.73;0.70;;;;;;;5.11;97.08;99834.88;5006849;28;20675;-75
2024/01/14 03:09:48;;;;;;;0.20;0.20;;;;;;;5.20;97.99;99830.22;5002240;28;20042;-75
2024/01/14 03:12:14;;;;;;;0.28;0.28;;;;;;;5.20;96.52;99826.75;5004108;28;20033;-74
2024/01/14 03:14:39;;;;;;;0.30;0.30;;;;;;;5.10;96.88;99828.00;5018885;28;20486;-75
2024/01/14 03:17:05;;;;;;;0.20;0.20;;;;;;;5.27;95.84;99830.41;5024187;28;20038;-75
2024/01/14 03:19:30;;;;;;;0.38;0.38;;;;;;;5.26;96.25;99831.53;5035505;28;20102;-74
2024/01/14 03:21:55;;;;;;;0.30;0.30;;;;;;;4.91;96.75;99833.19;5028489;28;20079;-74
2024/01/14 03:24:21;;;;;;;0.22;0.22;;;;;;;5.08;96.90;99830.25;5029508;28;20115;-74
2024/01/14 03:26:47;;;;;;;0.80;0.80;;;;;;;4.98;96.79;99829.94;5030730;28;20037;-74
2024/01/14 03:29:12;;;;;;;0.30;0.30;;;;;;;4.98;97.53;99838.72;5032246;28;20044;-74
2024/01/14 03:31:37;;;;;;;1.80;1.70;;;;;;;4.84;97.91;99834.88;5025974;28;20037;-74
2024/01/14 03:34:03;;;;;;;0.25;0.25;;;;;;;5.01;97.85;99843.38;5021590;28;20434;-74
2024/01/14 03:36:28;;;;;;;0.73;0.73;;;;;;;5.01;98.01;99842.59;5014494;28;20045;-74
2024/01/14 03:38:54;;;;;;;4.90;0.60;;;;;;;5.32;97.31;99832.06;5019815;28;20099;-74
2024/01/14 03:41:19;;;;;;;0.35;0.35;;;;;;;5.27;97.39;99835.72;5018377;28;20032;-74
2024/01/14 03:43:44;;;;;;;2.92;0.45;;;;;;;5.11;97.94;99844.81;4994928;28;20793;-74
2024/01/14 03:46:10;;;;;;;0.70;0.30;;;;;;;5.27;97.73;99845.63;5027482;28;20036;-74
2024/01/14 03:48:36;;;;;;;0.63;0.50;;;;;;;5.20;97.86;99850.78;5036626;22;20263;-74
2024/01/14 03:51:01;;;;;;;3.30;0.85;;;;;;;5.35;97.16;99836.69;5041862;28;20561;-73
2024/01/14 03:53:27;;;;;;;0.35;0.35;;;;;;;5.31;97.47;99839.28;5036032;28;20036;-74
2024/01/14 03:55:52;;;;;;;0.90;0.63;;;;;;;5.40;97.02;99829.22;5037862;28;20032;-74
2024/01/14 03:58:18;;;;;;;0.30;0.30;;;;;;;5.45;97.17;99830.88;5020626;28;20032;-74
2024/01/14 04:00:43;;;;;;;0.20;0.20;;;;;;;5.31;97.42;99835.81;5015460;28;20458;-74
2024/01/14 04:03:08;;;;;;;0.20;0.20;;;;;;;5.62;96.18;99816.44;5016943;28;20119;-74
2024/01/14 04:05:34;;;;;;;0.30;0.30;;;;;;;5.30;96.30;99835.03;5021858;28;20379;-74
2024/01/14 04:07:59;;;;;;;0.20;0.20;;;;;;;5.52;96.31;99831.06;5024801;28;20486;-74
2024/01/14 04:10:25;;;;;;;0.20;0.20;;;;;;;5.39;96.99;99833.03;5004464;28;20176;-74
2024/01/14 04:12:50;;;;;;;0.43;0.32;;;;;;;5.23;97.68;99834.84;5007431;28;20071;-74
2024/01/14 04:15:19;;;;;;;0.45;0.45;;;;;;;5.44;97.01;99827.44;5008010;28;20112;-74
2024/01/14 04:17:44;;;;;;;0.20;0.20;;;;;;;5.29;97.31;99833.50;5016109;28;20041;-74
2024/01/14 04:20:10;;;;;;;0.22;0.22;;;;;;;5.61;97.05;99826.38;5015641;28;20409;-74
2024/01/14 04:22:36;;;;;;;3.78;1.98;;;;;;;5.53;96.36;99822.72;5018573;28;20036;-73
2024/01/14 04:25:01;;;;;;;0.25;0.25;;;;;;;5.43;96.40;99828.56;5012877;28;20071;-74
2024/01/14 04:27:27;;;;;;;0.22;0.22;;;;;;;5.48;96.17;99830.19;5015648;28;20033;-74
2024/01/14 04:29:52;;;;;;;0.32;0.32;;;;;;;5.43;96.96;99820.56;5007452;28;20099;-73
2024/01/14 04:32:20;;;;;;;0.40;0.40;;;;;;;5.40;97.33;99820.47;5030983;28;20116;-74
2024/01/14 04:34:46;;;;;;;0.75;0.50;;;;;;;5.32;97.27;99822.13;5026540;28;20041;-74
2024/01/14 04:37:13;;;;;;;0.50;0.50;;;;;;;5.42;96.17;99827.00;5027667;28;20626;-74
2024/01/14 04:39:38;;;;;;;0.40;0.40;;;;;;;5.28;96.58;99826.59;5016418;28;20040;-74
2024/01/14 04:42:04;;;;;;;0.20;0.20;;;;;;;5.35;96.49;99826.03;5015871;28;20478;-74
2024/01/14 04:44:29;;;;;;;1.13;0.35;;;;;;;5.17;96.07;99832.75;4999463;28;20065;-73
2024/01/14 06:16:09;;;;;;;0.35;0.30;;;;;;;5.12;98.76;99780.44;5352218;22;20060;-86
2024/01/14 06:18:35;;;;;;;0.30;0.30;;;;;;;5.33;97.75;99773.00;4999039;28;20099;-87
2024/01/14 06:21:01;;;;;;;0.28;0.28;;;;;;;5.38;96.96;99771.97;5020029;28;20030;-87
2024/01/14 06:23:27;;;;;;;0.75;0.43;;;;;;;5.47;97.74;99770.69;4964725;28;20030;-87
2024/01/14 06:25:53;;;;;;;0.30;0.30;;;;;;;5.41;97.78;99765.94;4995400;28;20029;-86
2024/01/14 06:28:19;;;;;;;0.90;0.82;;;;;;;5.61;97.04;99770.28;4995656;28;20025;-87
2024/01/14 06:30:44;;;;;;;0.20;0.20;;;;;;;5.66;95.73;99772.69;5000080;28;20029;-86
2024/01/14 06:33:10;;;;;;;0.20;0.20;;;;;;;5.47;96.85;99765.38;4997484;28;20041;-87
2024/01/14 06:35:36;;;;;;;0.20;0.20;;;;;;;5.63;95.66;99775.28;4994888;28;20041;-87
2024/01/14 06:38:02;;;;;;;0.30;0.30;;;;;;;5.63;95.44;99760.03;5018585;28;20101;-86
2024/01/14 06:40:27;;;;;;;0.60;0.60;;;;;;;5.55;95.70;99776.22;5003051;28;20106;-87
2024/01/14 06:42:53;;;;;;;3.47;1.17;;;;;;;5.63;95.65;99770.72;5003650;28;20609;-87
2024/01/14 06:45:18;;;;;;;0.20;0.20;;;;;;;5.55;95.98;99773.53;5017135;28;20060;-87
2024/01/14 06:47:44;;;;;;;0.20;0.20;;;;;;;5.62;95.66;99773.72;5016979;28;20041;-86
2024/01/14 06:50:10;;;;;;;0.20;0.20;;;;;;;5.60;95.54;99762.59;5020068;28;20033;-87
2024/01/14 06:52:37;;;;;;;0.32;0.30;;;;;;;5.62;95.82;99766.50;4980246;28;20154;-86
2024/01/14 06:55:04;;;;;;;0.20;0.20;;;;;;;5.56;95.01;99764.41;5004740;28;20068;-87
2024/01/14 06:57:31;;;;;;;0.20;0.20;;;;;;;5.56;95.31;99773.19;5034074;28;20083;-87
2024/01/14 06:59:59;;;;;;;0.17;0.17;;;;;;;5.52;96.32;99766.22;5007643;28;20049;-86
2024/01/14 07:02:24;;;;;;;0.30;0.30;;;;;;;5.46;96.74;99758.47;4995647;28;20038;-87
2024/01/14 07:04:50;;;;;;;0.32;0.32;;;;;;;5.20;97.66;99762.72;4996606;28;20096;-87
2024/01/14 07:07:16;;;;;;;0.30;0.30;;;;;;;5.31;97.52;99766.44;5012120;28;20044;-86
2024/01/14 07:09:41;;;;;;;0.30;0.30;;;;;;;5.49;96.43;99765.78;5016032;28;20037;-87
2024/01/14 07:12:07;;;;;;;2.15;0.73;;;;;;;5.56;96.90;99767.84;5034190;28;20037;-87
2024/01/14 07:14:32;;;;;;;0.20;0.20;;;;;;;5.27;97.56;99766.34;5015999;28;20093;-87
2024/01/14 07:16:58;;;;;;;0.43;0.43;;;;;;;5.32;98.12;99768.00;5027692;28;20033;-87
2024/01/14 07:19:24;;;;;;;0.10;0.10;;;;;;;5.58;97.19;99775.53;5012233;28;20100;-86
2024/01/14 07:21:49;;;;;;;0.20;0.20;;;;;;;5.55;96.65;99777.00;4979423;28;20050;-87
2024/01/14 07:24:15;;;;;;;0.30;0.30;;;;;;;5.52;97.23;99771.56;4979919;28;20033;-87
2024/01/14 07:26:43;;;;;;;0.40;0.40;;;;;;;5.50;97.21;99771.88;4985849;28;20025;-88
2024/01/14 07:29:08;;;;;;;5.63;0.73;;;;;;;5.53;96.76;99780.00;5014874;28;20136;-84
2024/01/14 07:31:34;;;;;;;1.05;1.05;;;;;;;5.57;97.10;99780.09;5012774;28;20479;-87
2024/01/14 07:33:59;;;;;;;1.65;0.77;;;;;;;5.41;98.05;99784.63;4979898;28;20509;-86
2024/01/14 07:36:25;;;;;;;0.20;0.20;;;;;;;5.53;97.87;99784.56;4980092;28;20042;-87
2024/01/14 07:38:51;;;;;;;1.65;0.55;;;;;;;5.57;97.68;99779.31;4996138;28;20038;-86
2024/01/14 07:41:17;;;;;;;0.22;0.22;;;;;;;5.53;96.90;99785.31;4998872;28;20041;-87
2024/01/14 07:43:43;;;;;;;0.10;0.10;;;;;;;5.47;97.03;99784.06;5015384;28;20083;-87
2024/01/14 07:46:09;;;;;;;2.53;0.70;;;;;;;5.54;96.81;99783.44;5033454;28;20478;-87
2024/01/14 07:48:34;;;;;;;0.55;0.55;;;;;;;5.65;97.47;99781.06;5000854;28;20022;-87
2024/01/14 07:51:01;;;;;;;0.55;0.55;;;;;;;5.58;97.29;99781.63;4996223;28;20096;-87
2024/01/14 07:53:27;;;;;;;0.25;0.25;;;;;;;5.64;96.89;99774.16;4995968;28;20042;-86
2024/01/14 07:55:53;;;;;;;0.20;0.20;;;;;;;5.46;97.15;99771.03;4995677;28;20049;-87
2024/01/14 07:58:18;;;;;;;0.20;0.20;;;;;;;5.67;97.10;99784.91;5022610;28;20374;-87
2024/01/14 08:00:49;;;;;;;0.50;0.50;;;;;;;5.65;96.88;99781.84;5033835;28;20413;-88
2024/01/14 08:03:15;;;;;;;3.10;0.52;;;;;;;5.66;96.42;99777.25;5002339;28;20048;-88
2024/01/14 08:05:40;;;;;;;0.20;0.20;;;;;;;5.72;95.88;99773.22;5036369;28;20033;-87
2024/01/14 08:08:06;;;;;;;0.28;0.28;;;;;;;5.64;96.42;99771.47;5035753;28;20037;-88
2024/01/14 08:10:33;;;;;;;1.65;0.95;;;;;;;5.61;97.76;99774.84;5018094;28;20044;-87
2024/01/14 08:12:59;;;;;;;5.55;0.68;;;;;;;5.58;97.73;99778.19;5017555;28;20051;-87
2024/01/14 08:15:24;;;;;;;0.28;0.28;;;;;;;5.54;97.44;99780.78;5004991;28;20035;-87
2024/01/14 08:17:50;;;;;;;0.20;0.20;;;;;;;5.60;96.88;99770.63;5036372;28;20128;-87
2024/01/14 08:20:16;;;;;;;0.20;0.20;;;;;;;5.59;97.37;99777.09;5017987;28;20029;-87
2024/01/14 08:22:41;;;;;;;3.58;0.47;;;;;;;5.63;97.57;99777.94;5018737;28;20044;-87
2024/01/14 08:25:08;;;;;;;0.20;0.20;;;;;;;5.53;96.56;99774.66;5014299;28;20034;-87
2024/01/14 08:27:34;;;;;;;0.60;0.60;;;;;;;5.58;98.26;99778.19;4998757;28;20057;-87
2024/01/14 08:30:00;;;;;;;0.20;0.20;;;;;;;5.54;97.95;99780.78;5014584;28;20024;-87
2024/01/14 08:32:25;;;;;;;0.95;0.50;;;;;;;5.56;98.39;99772.41;5017957;28;20045;-87
2024/01/14 08:34:51;;;;;;;0.20;0.20;;;;;;;5.53;98.50;99770.44;5027225;28;20029;-88
2024/01/14 08:37:16;;;;;;;0.20;0.20;;;;;;;5.62;99.00;99774.50;4995030;28;20087;-89
2024/01/14 08:39:42;;;;;;;0.20;0.20;;;;;;;5.65;98.46;99771.16;4986638;28;20033;-89
2024/01/14 08:42:08;;;;;;;0.20;0.20;;;;;;;5.53;98.06;99769.31;4999129;28;20037;-89
2024/01/14 08:44:33;;;;;;;0.30;0.30;;;;;;;5.72;97.93;99768.66;4972653;28;20871;-88
2024/01/14 08:46:59;;;;;;;0.50;0.50;;;;;;;5.88;97.14;99768.69;4981942;28;20034;-86
2024/01/14 08:49:29;;;;;;;0.20;0.20;;;;;;;5.87;96.61;99775.91;4980168;28;20045;-86
2024/01/14 08:51:55;;;;;;;0.20;0.20;;;;;;;5.74;97.72;99768.31;4982580;28;20099;-88
2024/01/14 08:54:21;;;;;;;1.13;0.50;;;;;;;5.88;97.78;99771.38;4997581;28;20454;-86
2024/01/14 08:56:46;;;;;;;0.32;0.32;;;;;;;5.78;97.84;99782.53;4966407;28;20048;-86
2024/01/14 08:59:12;;;;;;;2.08;0.70;;;;;;;5.71;98.25;99782.34;4982313;28;20045;-86
2024/01/14 09:01:37;;;;;;;0.30;0.30;;;;;;;5.72;98.12;99778.56;4979331;28;20603;-85
2024/01/14 09:04:04;;;;;;;0.70;0.30;;;;;;;5.64;98.84;99780.28;4982324;28;20037;-87
2024/01/14 09:06:29;;;;;;;0.93;0.35;;;;;;;5.81;98.70;99773.81;4986352;28;20112;-87
2024/01/14 09:08:55;;;;;;;0.40;0.40;;;;;;;5.93;96.99;99765.75;4999710;28;20101;-86
2024/01/14 09:11:20;;;;;;;0.25;0.25;;;;;;;5.82;97.01;99781.50;4979671;28;20120;-86
2024/01/14 09:13:45;;;;;;;0.25;0.25;;;;;;;5.70;97.61;99773.56;4980390;28;20053;-87
2024/01/14 09:16:12;;;;;;;0.20;0.20;;;;;;;5.59;98.90;99777.88;4978357;28;20044;-86
2024/01/14 09:18:37;;;;;;;0.47;0.47;;;;;;;5.76;97.91;99772.19;4959399;28;20049;-86
2024/01/14 09:21:03;;;;;;;0.22;0.22;;;;;;;5.73;97.90;99766.78;4982428;28;20037;-86
2024/01/14 09:23:29;;;;;;;1.23;0.60;;;;;;;5.80;97.67;99770.38;4967741;28;20034;-88
2024/01/14 09:25:58;;;;;;;0.45;0.35;;;;;;;5.57;98.85;99763.28;4985549;28;20117;-89
2024/01/14 09:28:26;;;;;;;0.20;0.20;;;;;;;5.69;98.82;99766.66;4981473;28;20033;-88
2024/01/14 09:30:53;;;;;;;0.95;0.60;;;;;;;5.77;97.46;99764.97;4977287;28;20060;-88
2024/01/14 09:33:18;;;;;;;0.45;0.45;;;;;;;5.48;98.13;99758.88;4963616;28;20520;-88
2024/01/14 09:35:44;;;;;;;0.30;0.30;;;;;;;5.58;99.97;99770.19;4976279;28;20116;-88
2024/01/14 09:38:10;;;;;;;0.80;0.80;;;;;;;5.66;99.06;99769.25;4978941;28;20026;-88
2024/01/14 09:40:36;;;;;;;1.20;0.70;;;;;;;5.88;98.23;99777.50;4965355;28;20463;-87
2024/01/14 09:43:09;;;;;;;0.47;0.47;;;;;;;5.73;98.30;99764.09;4960388;28;20037;-88
2024/01/14 09:45:35;;;;;;;0.50;0.50;;;;;;;5.99;98.78;99772.38;4996595;28;20026;-89
2024/01/14 09:48:01;;;;;;;0.43;0.43;;;;;;;6.15;98.55;99768.59;4978386;28;20402;-88
2024/01/14 09:50:27;;;;;;;0.38;0.38;;;;;;;5.99;99.21;99756.34;5005904;28;20048;-70
2024/01/14 09:53:28;;;;;;;0.73;0.73;;;;;;;5.90;100.00;99756.56;5008619;28;20068;-88
2024/01/14 09:55:54;;;;;;;0.38;0.38;;;;;;;6.17;98.74;99753.00;4995096;28;20026;-86
2024/01/14 09:58:21;;;;;;;0.45;0.45;;;;;;;6.18;98.00;99751.06;5010809;28;20109;-87
2024/01/14 10:00:48;;;;;;;1.05;0.98;;;;;;;6.17;96.57;99765.56;5025239;28;20036;-87
2024/01/14 10:03:13;;;;;;;5.80;0.77;;;;;;;6.01;96.72;99751.44;5024612;28;20347;-86
2024/01/14 10:05:39;;;;;;;0.30;0.30;;;;;;;5.98;97.04;99744.88;4977702;28;20112;-87
2024/01/14 10:08:04;;;;;;;0.90;0.50;;;;;;;6.04;97.76;99740.06;4981504;28;20453;-86
2024/01/14 10:10:32;;;;;;;0.20;0.20;;;;;;;6.19;96.45;99752.63;4994239;28;20033;-87
2024/01/14 10:12:58;;;;;;;0.25;0.25;;;;;;;6.21;97.48;99737.03;5006124;28;20120;-87
2024/01/14 10:15:25;;;;;;;0.20;0.20;;;;;;;6.29;97.12;99734.16;5004014;28;20445;-84
2024/01/14 10:17:50;;;;;;;0.20;0.20;;;;;;;6.19;96.79;99712.56;5028911;28;20076;-86
2024/01/14 10:20:19;;;;;;;0.40;0.40;;;;;;;6.02;97.33;99731.63;4976596;28;20030;-86
2024/01/14 10:22:45;;;;;;;0.45;0.40;;;;;;;6.24;96.52;99730.97;5007398;28;20044;-86
2024/01/14 10:25:11;;;;;;;0.30;0.30;;;;;;;6.27;96.09;99715.00;5021047;28;20029;-83
2024/01/14 10:27:36;;;;;;;0.30;0.30;;;;;;;6.26;95.35;99718.03;5017883;28;20045;-87
2024/01/14 10:30:02;;;;;;;0.20;0.20;;;;;;;6.16;96.18;99716.69;5003466;28;20058;-87
2024/01/14 10:32:31;;;;;;;0.20;0.20;;;;;;;5.83;97.54;99712.81;5022297;28;20061;-88
2024/01/14 10:34:57;;;;;;;0.30;0.30;;;;;;;5.88;96.81;99707.25;5010073;28;20091;-87
2024/01/14 10:37:26;;;;;;;0.20;0.20;;;;;;;5.80;98.01;99702.81;4991718;28;20041;-86
2024/01/14 10:39:53;;;;;;;0.20;0.20;;;;;;;5.82;96.09;99701.38;5017692;28;20053;-86
2024/01/14 10:42:19;;;;;;;0.50;0.35;;;;;;;6.02;96.38;99694.97;5019871;28;20018;-86
2024/01/14 10:44:44;;;;;;;0.38;0.38;;;;;;;5.81;98.27;99705.16;5001681;28;20374;-87
2024/01/14 10:47:12;;;;;;;0.30;0.30;;;;;;;6.10;96.50;99687.88;5017829;28;20037;-87
2024/01/14 10:49:43;;;;;;;2.45;0.47;;;;;;;5.82;97.78;99685.34;4981368;28;20057;-88
2024/01/14 10:52:10;;;;;;;0.40;0.40;;;;;;;5.96;97.89;99682.25;5014403;28;20513;-89
2024/01/14 10:54:49;;;;;;;0.30;0.30;;;;;;;5.83;98.08;99686.91;5023099;28;20040;-88
2024/01/14 10:57:32;;;;;;;0.20;0.20;;;;;;;6.06;97.99;99676.34;5017989;28;20046;-87
2024/01/14 11:00:05;;;;;;;0.30;0.30;;;;;;;6.16;96.93;99676.59;5004600;28;20379;-88
2024/01/14 11:02:32;;;;;;;0.30;0.30;;;;;;;6.21;97.06;99676.31;5027942;28;20026;-88
2024/01/14 11:04:58;;;;;;;0.30;0.30;;;;;;;6.23;96.34;99668.72;4999962;28;20076;-88
2024/01/14 11:07:24;;;;;;;0.60;0.60;;;;;;;6.17;96.15;99656.78;5011893;28;20046;-88
2024/01/14 11:09:52;;;;;;;3.92;0.55;;;;;;;5.88;97.57;99664.50;4996147;28;20044;-89
2024/01/14 11:12:31;;;;;;;0.30;0.30;;;;;;;5.85;98.00;99651.84;4985870;28;20942;-89
2024/01/14 11:15:11;;;;;;;0.30;0.30;;;;;;;6.15;95.97;99650.22;4970182;28;20033;-89
2024/01/14 11:18:06;;;;;;;0.60;0.60;;;;;;;5.83;97.37;99640.69;4954478;28;20057;-89
2024/01/14 11:20:44;;;;;;;6.93;1.83;;;;;;;5.84;96.97;99635.06;4966476;28;20033;-90
2024/01/14 11:23:10;;;;;;;1.20;0.50;;;;;;;5.78;96.90;99640.97;4985094;28;20033;-90
2024/01/14 11:25:41;;;;;;;0.30;0.30;;;;;;;6.10;96.37;99632.56;4972697;28;20021;-89
2024/01/14 11:28:06;;;;;;;0.40;0.40;;;;;;;6.20;94.00;99633.91;4967036;28;20044;-85
2024/01/14 11:30:51;;;;;;;0.20;0.20;;;;;;;5.99;95.46;99630.78;4980179;28;20025;-88
2024/01/14 11:33:42;;;;;;;2.50;1.08;;;;;;;5.94;95.71;99623.81;4993219;28;20041;-91
2024/01/14 11:36:10;;;;;;;0.43;0.43;;;;;;;5.85;95.23;99612.53;4968902;28;20501;-89
2024/01/14 11:38:37;;;;;;;6.43;0.70;;;;;;;5.80;96.79;99604.00;4969041;28;20057;-89
2024/01/14 11:41:29;;;;;;;0.75;0.75;;;;;;;5.90;96.31;99603.50;4988333;28;20034;-91
2024/01/14 11:44:01;;;;;;;0.30;0.30;;;;;;;5.85;96.27;99601.09;4992019;28;20125;-83
2024/01/14 11:46:48;;;;;;;0.30;0.30;;;;;;;5.70;97.57;99586.63;4992637;28;20084;-88
2024/01/14 11:49:23;;;;;;;1.60;0.63;;;;;;;5.68;98.20;99588.88;4983198;28;20042;-83
2024/01/14 11:52:00;;;;;;;0.20;0.20;;;;;;;5.74;97.04;99579.47;5007820;28;20052;-85
2024/01/14 11:54:26;;;;;;;1.10;0.47;;;;;;;5.82;97.78;99575.84;5017931;28;20037;-86
2024/01/14 12:31:04;;;;;;;0.30;0.30;;;;;;;6.54;95.62;99507.41;4997776;28;20042;-89
2024/01/14 12:47:58;;;;;;;0.55;0.55;;;;;;;6.12;96.15;99469.97;5140418;23;20049;-83
2024/01/14 12:50:29;;;;;;;0.70;0.70;;;;;;;6.20;95.72;99470.88;5038776;28;20038;-83
2024/01/14 12:53:01;;;;;;;0.40;0.40;;;;;;;6.01;95.55;99461.00;5039810;28;20060;-84
2024/01/14 12:55:30;;;;;;;0.50;0.50;;;;;;;6.39;95.05;99460.13;5020707;28;20038;-84
2024/01/14 12:57:58;;;;;;;0.40;0.40;;;;;;;6.42;95.11;99446.06;5020517;28;20068;-83
2024/01/14 13:00:24;;;;;;;0.68;0.68;;;;;;;6.41;93.89;99444.50;4986717;28;20486;-86
2024/01/14 13:02:49;;;;;;;0.20;0.20;;;;;;;6.44;94.10;99443.03;4955711;28;20165;-85
2024/01/14 13:05:15;;;;;;;0.30;0.30;;;;;;;6.34;94.30;99439.06;4992513;28;20053;-85
2024/01/14 13:07:40;;;;;;;1.05;0.75;;;;;;;6.40;94.79;99434.97;4960855;28;20038;-86
2024/01/14 13:10:07;;;;;;;0.30;0.30;;;;;;;6.51;94.81;99427.09;4974355;28;20065;-87
2024/01/14 13:12:33;;;;;;;0.40;0.40;;;;;;;6.51;94.35;99419.84;4974778;28;20040;-87
2024/01/14 13:14:59;;;;;;;1.55;0.80;;;;;;;6.54;94.18;99416.47;4998709;28;20034;-87
2024/01/14 13:20:55;;;;;;;0.20;0.20;;;;;;;6.14;94.75;99416.94;4987084;28;20041;-89
2024/01/14 13:23:21;;;;;;;0.70;0.70;;;;;;;6.26;95.30;99413.31;4958711;28;20042;-84
2024/01/14 13:25:58;;;;;;;0.73;0.47;;;;;;;6.25;95.39;99399.19;4954702;28;20057;-88
2024/01/14 13:29:56;;;;;;;0.25;0.25;;;;;;;6.07;94.57;99397.34;4986026;28;20416;-89
2024/01/14 13:33:13;;;;;;;0.38;0.38;;;;;;;5.80;97.31;99398.34;4986919;28;20045;-89
2024/01/14 13:35:42;;;;;;;0.30;0.30;;;;;;;5.80;98.84;99393.00;4955586;28;20049;-89
2024/01/14 13:38:44;;;;;;;;;;;;;;;;;;;;;
2024/01/14 13:41:58;;;;;;;;;;;;;;;;;;;;;
2024/01/14 13:44:25;;;;;;;0.20;0.20;;;;;;;5.90;99.21;99387.91;4983968;28;20056;-88
2024/01/14 13:47:08;;;;;;;1.55;0.73;;;;;;;6.10;97.78;99391.28;4966336;28;20038;-88
2024/01/14 13:49:56;;;;;;;0.40;0.40;;;;;;;6.16;96.80;99384.50;4966935;28;21449;-89
2024/01/14 13:56:24;;;;;;;0.45;0.45;;;;;;;6.04;97.82;99361.41;4961180;28;19952;-89
2024/01/14 13:59:02;;;;;;;0.93;0.32;;;;;;;5.97;98.68;99371.22;4958649;28;21099;-89
2024/01/14 14:01:30;;;;;;;0.40;0.40;;;;;;;5.99;99.66;99352.94;4976444;28;20479;-87
2024/01/14 14:14:43;;;;;;;0.45;0.45;;;;;;;6.04;99.68;99333.94;5224923;22;20542;-85
2024/01/14 14:17:09;;;;;;;0.20;0.20;;;;;;;6.17;98.70;99338.75;4925017;28;20035;-83
2024/01/14 14:19:35;;;;;;;0.40;0.40;;;;;;;6.15;99.04;99332.22;4932668;28;20804;-85
2024/01/14 14:22:00;;;;;;;0.35;0.35;;;;;;;6.14;100.00;99317.28;4944632;28;20089;-84